createdAt,value
2023-05-14T00:02:06.343Z,99295.34
2023-05-14T00:07:07.971Z,99295.80
2023-05-14T00:12:09.807Z,99295.66
2023-05-14T00:17:11.621Z,99284.27
2023-05-14T00:22:13.451Z,99282.75
2023-05-14T00:27:15.281Z,99286.34
2023-05-14T00:32:17.130Z,99278.41
2023-05-14T00:37:19.028Z,99278.48
2023-05-14T00:42:20.732Z,99278.79
2023-05-14T00:47:22.567Z,99286.34
2023-05-14T00:52:24.586Z,99289.19
2023-05-14T00:57:26.627Z,99289.61
2023-05-14T01:02:28.322Z,99289.39
2023-05-14T01:07:43.953Z,99297.07
2023-05-14T01:12:55.501Z,99294.36
2023-05-14T01:18:01.798Z,99296.36
2023-05-14T01:23:03.956Z,99298.23
2023-05-14T01:28:13.059Z,99295.21
2023-05-14T01:33:18.113Z,99293.42
2023-05-14T01:38:21.361Z,99289.34
2023-05-14T01:43:23.944Z,99285.70
2023-05-14T01:48:25.793Z,99285.50
2023-05-14T01:53:27.777Z,99283.88
2023-05-14T01:58:29.589Z,99278.71
2023-05-14T02:03:31.474Z,99276.94
2023-05-14T02:08:33.599Z,99274.55
2023-05-14T02:13:36.254Z,99280.49
2023-05-14T02:18:37.988Z,99274.84
2023-05-14T02:23:41.935Z,99274.38
2023-05-14T02:28:44.495Z,99269.11
2023-05-14T02:33:47.990Z,99260.10
2023-05-14T02:38:49.659Z,99261.61
2023-05-14T02:43:52.538Z,99254.05
2023-05-14T02:48:54.367Z,99247.09
2023-05-14T02:53:56.146Z,99241.51
2023-05-14T02:58:57.836Z,99236.39
2023-05-14T03:04:00.292Z,99229.29
2023-05-14T03:09:02.043Z,99226.06
2023-05-14T03:14:03.819Z,99222.16
2023-05-14T03:19:05.882Z,99221.78
2023-05-14T03:24:07.772Z,99219.41
2023-05-14T03:29:10.788Z,99217.69
2023-05-14T03:34:12.658Z,99221.85
2023-05-14T03:39:19.517Z,99224.46
2023-05-14T03:44:21.269Z,99222.16
2023-05-14T03:49:23.090Z,99221.27
2023-05-14T03:54:26.443Z,99223.23
2023-05-14T03:59:28.723Z,99218.42
2023-05-14T04:04:30.406Z,99217.90
2023-05-14T04:09:32.210Z,99220.41
2023-05-14T04:14:33.879Z,99220.85
2023-05-14T04:19:35.830Z,99213.88
2023-05-14T04:24:38.020Z,99206.42
2023-05-14T04:29:39.693Z,99200.30
2023-05-14T04:34:41.506Z,99200.46
2023-05-14T04:39:43.664Z,99200.73
2023-05-14T04:44:45.299Z,99197.70
2023-05-14T04:49:47.023Z,99205.20
2023-05-14T04:54:48.700Z,99204.17
2023-05-14T04:59:50.373Z,99200.31
2023-05-14T05:04:52.169Z,99195.94
2023-05-14T05:09:53.989Z,99197.33
2023-05-14T05:14:57.439Z,99195.58
2023-05-14T05:19:59.162Z,99191.52
2023-05-14T05:25:01.099Z,99190.52
2023-05-14T05:30:04.045Z,99189.10
2023-05-14T05:35:06.667Z,99189.17
2023-05-14T05:40:10.213Z,99194.08
2023-05-14T05:45:11.878Z,99191.91
2023-05-14T05:50:14.935Z,99198.27
2023-05-14T05:55:16.746Z,99198.89
2023-05-14T06:00:19.157Z,99197.70
2023-05-14T06:05:20.931Z,99190.73
2023-05-14T06:10:22.991Z,99179.64
2023-05-14T06:15:25.125Z,99172.40
2023-05-14T06:20:26.995Z,99172.41
2023-05-14T06:25:28.825Z,99169.22
2023-05-14T06:30:30.623Z,99163.88
2023-05-14T06:35:33.019Z,99168.11
2023-05-14T06:40:34.684Z,99165.15
2023-05-14T06:45:36.595Z,99171.55
2023-05-14T06:50:38.433Z,99172.73
2023-05-14T06:55:40.179Z,99164.95
2023-05-14T07:00:41.971Z,99164.38
2023-05-14T07:05:45.905Z,99166.95
2023-05-14T07:10:47.624Z,99164.60
2023-05-14T07:15:49.421Z,99168.53
2023-05-14T07:20:51.265Z,99164.65
2023-05-14T07:25:52.970Z,99163.86
2023-05-14T07:30:54.666Z,99169.50
2023-05-14T07:35:56.408Z,99165.27
2023-05-14T07:40:58.564Z,99168.58
2023-05-14T07:46:00.400Z,99164.46
2023-05-14T07:51:02.082Z,99154.70
2023-05-14T07:56:03.913Z,99150.20
2023-05-14T08:01:07.260Z,99134.80
2023-05-14T08:06:09.339Z,99129.40
2023-05-14T08:11:11.138Z,99115.77
2023-05-14T08:16:12.953Z,99117.27
2023-05-14T08:21:14.964Z,99109.85
2023-05-14T08:26:16.940Z,99100.81
2023-05-14T08:31:18.698Z,99097.61
2023-05-14T08:36:20.749Z,99092.95
2023-05-14T08:41:22.749Z,99086.80
2023-05-14T08:46:27.326Z,99082.08
2023-05-14T08:51:29.119Z,99086.64
2023-05-14T08:56:33.286Z,99079.20
2023-05-14T09:01:35.876Z,99073.90
2023-05-14T09:06:39.487Z,99062.19
2023-05-14T09:11:48.634Z,99065.39
2023-05-14T09:16:51.499Z,99056.99
2023-05-14T09:21:58.382Z,99057.30
2023-05-14T09:27:00.119Z,99057.73
2023-05-14T09:32:05.360Z,99058.77
2023-05-14T09:37:09.325Z,99059.14
2023-05-14T09:42:11.009Z,99050.79
2023-05-14T09:47:15.608Z,99044.88
2023-05-14T09:52:19.716Z,99037.17
2023-05-14T09:57:21.623Z,99037.15
2023-05-14T10:02:27.458Z,99025.95
2023-05-14T10:07:38.750Z,99016.58
2023-05-14T10:12:40.869Z,99009.02
2023-05-14T10:17:47.265Z,98997.19
2023-05-14T10:22:49.126Z,98991.95
2023-05-14T10:27:51.027Z,98990.92
2023-05-14T10:33:12.688Z,98978.86
2023-05-14T10:38:15.282Z,98970.00
2023-05-14T10:43:17.627Z,98972.27
2023-05-14T10:48:19.913Z,98968.95
2023-05-14T10:53:34.644Z,98963.65
2023-05-14T10:58:42.191Z,98974.96
2023-05-14T11:03:46.343Z,98976.04
2023-05-14T11:08:51.194Z,98977.80
2023-05-14T11:13:53.735Z,98970.43
2023-05-14T11:19:03.476Z,98964.10
2023-05-14T11:24:07.428Z,98960.73
2023-05-14T11:29:10.465Z,98960.63
2023-05-14T11:34:12.152Z,98964.69
2023-05-14T11:39:20.248Z,98957.91
2023-05-14T11:44:22.625Z,98949.21
2023-05-14T11:49:25.408Z,98945.13
2023-05-14T11:54:31.358Z,98934.54
2023-05-14T11:59:33.082Z,98920.56
2023-05-14T12:04:34.887Z,98918.58
2023-05-14T12:09:45.194Z,98912.75
2023-05-14T12:14:48.208Z,98908.58
2023-05-14T12:19:51.924Z,98906.79
2023-05-14T12:24:58.780Z,98900.75
2023-05-14T12:30:21.164Z,98893.92
2023-05-14T12:35:24.028Z,98892.23
2023-05-14T12:40:26.324Z,98881.80
2023-05-14T12:45:28.198Z,98875.45
2023-05-14T12:50:29.928Z,98868.86
2023-05-14T12:55:31.742Z,98865.72
2023-05-14T13:00:33.425Z,98858.84
2023-05-14T13:05:35.864Z,98847.14
2023-05-14T13:10:37.908Z,98839.52
2023-05-14T13:15:39.565Z,98839.56
2023-05-14T13:20:43.224Z,98838.98
2023-05-14T13:25:46.478Z,98838.19
2023-05-14T13:31:10.299Z,98825.41
2023-05-14T13:36:14.997Z,98814.44
2023-05-14T13:41:16.835Z,98812.45
2023-05-14T13:46:18.532Z,98809.33
2023-05-14T13:51:20.325Z,98787.54
2023-05-14T13:56:22.034Z,98768.77
2023-05-14T14:01:23.808Z,98774.89
2023-05-14T14:06:27.163Z,98778.73
2023-05-14T14:11:28.966Z,98766.52
2023-05-14T14:16:30.720Z,98755.27
2023-05-14T14:21:33.033Z,98743.92
2023-05-14T14:26:34.670Z,98740.38
2023-05-14T14:31:36.387Z,98741.95
2023-05-14T14:36:38.263Z,98739.40
2023-05-14T14:41:40.183Z,98727.05
2023-05-14T14:46:42.935Z,98713.10
2023-05-14T14:51:44.756Z,98706.95
2023-05-14T14:56:48.238Z,98694.30
2023-05-14T15:01:49.909Z,98678.52
2023-05-14T15:06:51.673Z,98667.83
2023-05-14T15:11:53.624Z,98668.29
2023-05-14T15:16:55.373Z,98668.52
2023-05-14T15:21:57.247Z,98664.54
2023-05-14T15:26:58.961Z,98656.45
2023-05-14T15:32:00.725Z,98649.57
2023-05-14T15:37:02.918Z,98643.73
2023-05-14T15:42:06.481Z,98639.27
2023-05-14T15:47:08.187Z,98636.21
2023-05-14T15:52:10.039Z,98630.41
2023-05-14T15:57:12.007Z,98616.49
2023-05-14T16:02:15.126Z,98611.05
2023-05-14T16:07:16.892Z,98609.41
2023-05-14T16:12:18.794Z,98610.01
2023-05-14T16:17:20.509Z,98600.44
2023-05-14T16:22:22.126Z,98599.91
2023-05-14T16:27:23.917Z,98595.29
2023-05-14T16:32:25.547Z,98594.79
2023-05-14T16:37:27.663Z,98595.20
2023-05-14T16:42:29.464Z,98596.98
2023-05-14T16:47:31.174Z,98610.31
2023-05-14T16:52:33.124Z,98617.06
2023-05-14T16:57:35.225Z,98616.98
2023-05-14T17:02:37.179Z,98587.83
2023-05-14T17:07:39.266Z,98576.83
2023-05-14T17:12:40.910Z,98571.57
2023-05-14T17:17:42.700Z,98568.80
2023-05-14T17:22:44.423Z,98567.75
2023-05-14T17:27:46.182Z,98566.21
2023-05-14T17:32:50.346Z,98568.64
2023-05-14T17:37:52.813Z,98565.16
2023-05-14T17:42:54.645Z,98581.67
2023-05-14T17:47:56.344Z,98621.65
2023-05-14T17:52:58.101Z,98627.09
2023-05-14T17:57:59.912Z,98629.78
2023-05-14T18:03:01.773Z,98628.95
2023-05-14T18:08:03.628Z,98637.04
2023-05-14T18:13:05.642Z,98642.36
2023-05-14T18:18:07.919Z,98644.38
2023-05-14T18:23:09.802Z,98645.39
2023-05-14T18:28:12.919Z,98635.60
2023-05-14T18:33:14.695Z,98626.42
2023-05-14T18:38:17.886Z,98619.90
2023-05-14T18:43:20.019Z,98623.96
2023-05-14T18:48:21.874Z,98627.00
2023-05-14T18:53:23.607Z,98625.06
2023-05-14T18:58:25.726Z,98627.98
2023-05-14T19:03:28.965Z,98628.89
2023-05-14T19:08:30.723Z,98633.34
2023-05-14T19:13:32.992Z,98638.55
2023-05-14T19:18:34.698Z,98646.06
2023-05-14T19:23:36.370Z,98650.30
2023-05-14T19:28:38.971Z,98653.73
2023-05-14T19:33:40.762Z,98662.29
2023-05-14T19:38:42.395Z,98664.89
2023-05-14T19:43:44.029Z,98661.21
2023-05-14T19:48:45.714Z,98659.02
2023-05-14T19:53:47.539Z,98663.62
2023-05-14T19:58:49.356Z,98665.06
2023-05-14T20:03:50.958Z,98659.52
2023-05-14T20:08:52.707Z,98658.72
2023-05-14T20:13:54.663Z,98652.78
2023-05-14T20:18:56.511Z,98641.31
2023-05-14T20:23:58.225Z,98627.46
2023-05-14T20:29:00.201Z,98611.72
2023-05-14T20:34:02.306Z,98583.27
2023-05-14T20:39:06.159Z,98561.83
2023-05-14T20:44:08.073Z,98538.86
2023-05-14T20:49:09.694Z,98527.20
2023-05-14T20:54:11.421Z,98515.52
2023-05-14T20:59:13.266Z,98492.36
2023-05-14T21:04:15.282Z,98485.14
2023-05-14T21:09:24.702Z,98471.66
2023-05-14T21:14:31.662Z,98455.17
2023-05-14T21:19:33.312Z,98447.43
2023-05-14T21:24:35.024Z,98440.67
2023-05-14T21:29:36.953Z,98447.10
2023-05-14T21:34:38.689Z,98440.25
2023-05-14T21:39:41.134Z,98438.14
2023-05-14T21:44:43.593Z,98430.33
2023-05-14T21:49:53.501Z,98414.77
2023-05-14T21:54:55.187Z,98399.59
2023-05-14T21:59:58.135Z,98393.38
2023-05-14T22:04:59.734Z,98386.89
2023-05-14T22:10:01.469Z,98384.84
2023-05-14T22:15:03.821Z,98378.27
2023-05-14T22:20:06.999Z,98373.80
2023-05-14T22:25:09.221Z,98370.52
2023-05-14T22:30:11.633Z,98364.65
2023-05-14T22:35:13.276Z,98354.29
2023-05-14T22:40:15.086Z,98370.16
2023-05-14T22:45:16.904Z,98363.86
2023-05-14T22:50:18.694Z,98346.23
2023-05-14T22:55:20.343Z,98322.36
2023-05-14T23:00:22.178Z,98315.02
2023-05-14T23:05:24.028Z,98302.84
2023-05-14T23:10:29.686Z,98298.19
2023-05-14T23:15:36.169Z,98290.02
2023-05-14T23:20:37.810Z,98278.61
2023-05-14T23:25:39.506Z,98274.77
2023-05-14T23:30:41.368Z,98276.84
2023-05-14T23:35:43.304Z,98275.69
2023-05-14T23:40:45.664Z,98271.77
2023-05-14T23:45:50.430Z,98261.20
2023-05-14T23:50:54.716Z,98243.59
2023-05-14T23:55:56.567Z,98226.84
